sensor_id;sensor_type;location;lat;lon;timestamp;temperature;humidity
69895;DHT22;57172;52.034;5.090;2023-06-04T00:00:44;15.60;51.40
69895;DHT22;57172;52.034;5.090;2023-06-04T00:03:12;15.60;51.60
69895;DHT22;57172;52.034;5.090;2023-06-04T00:05:39;15.60;51.70
69895;DHT22;57172;52.034;5.090;2023-06-04T00:08:06;15.50;51.70
69895;DHT22;57172;52.034;5.090;2023-06-04T00:10:33;15.50;51.80
69895;DHT22;57172;52.034;5.090;2023-06-04T00:13:00;15.50;51.80
69895;DHT22;57172;52.034;5.090;2023-06-04T00:15:27;15.50;51.90
69895;DHT22;57172;52.034;5.090;2023-06-04T00:17:54;15.40;52.00
69895;DHT22;57172;52.034;5.090;2023-06-04T00:20:23;15.40;52.10
69895;DHT22;57172;52.034;5.090;2023-06-04T00:22:50;15.40;52.00
69895;DHT22;57172;52.034;5.090;2023-06-04T00:25:17;15.30;52.10
69895;DHT22;57172;52.034;5.090;2023-06-04T00:27:44;15.30;52.10
69895;DHT22;57172;52.034;5.090;2023-06-04T00:30:11;15.30;52.10
69895;DHT22;57172;52.034;5.090;2023-06-04T00:32:38;15.20;52.40
69895;DHT22;57172;52.034;5.090;2023-06-04T00:35:07;15.20;52.30
69895;DHT22;57172;52.034;5.090;2023-06-04T00:37:35;15.10;52.30
69895;DHT22;57172;52.034;5.090;2023-06-04T00:40:03;15.10;52.40
69895;DHT22;57172;52.034;5.090;2023-06-04T00:42:30;15.00;52.60
69895;DHT22;57172;52.034;5.090;2023-06-04T00:44:58;15.00;52.60
69895;DHT22;57172;52.034;5.090;2023-06-04T00:47:25;14.90;52.60
69895;DHT22;57172;52.034;5.090;2023-06-04T00:49:56;14.90;52.80
69895;DHT22;57172;52.034;5.090;2023-06-04T00:52:23;14.80;52.90
69895;DHT22;57172;52.034;5.090;2023-06-04T00:54:51;14.80;52.80
69895;DHT22;57172;52.034;5.090;2023-06-04T00:57:18;14.70;52.90
69895;DHT22;57172;52.034;5.090;2023-06-04T00:59:45;14.70;53.10
69895;DHT22;57172;52.034;5.090;2023-06-04T01:02:18;14.70;53.10
69895;DHT22;57172;52.034;5.090;2023-06-04T01:07:36;14.60;53.10
69895;DHT22;57172;52.034;5.090;2023-06-04T01:10:03;14.60;53.30
69895;DHT22;57172;52.034;5.090;2023-06-04T01:12:30;14.50;53.60
69895;DHT22;57172;52.034;5.090;2023-06-04T01:14:57;14.50;53.50
69895;DHT22;57172;52.034;5.090;2023-06-04T01:17:38;14.50;53.50
69895;DHT22;57172;52.034;5.090;2023-06-04T01:20:55;14.50;53.50
69895;DHT22;57172;52.034;5.090;2023-06-04T01:25:45;14.40;53.80
69895;DHT22;57172;52.034;5.090;2023-06-04T01:28:16;14.30;53.70
69895;DHT22;57172;52.034;5.090;2023-06-04T01:30:45;14.30;53.80
69895;DHT22;57172;52.034;5.090;2023-06-04T01:33:14;14.30;53.70
69895;DHT22;57172;52.034;5.090;2023-06-04T01:35:42;14.20;53.70
69895;DHT22;57172;52.034;5.090;2023-06-04T01:38:10;14.20;53.90
69895;DHT22;57172;52.034;5.090;2023-06-04T01:40:37;14.20;53.90
69895;DHT22;57172;52.034;5.090;2023-06-04T01:43:04;14.10;54.00
69895;DHT22;57172;52.034;5.090;2023-06-04T01:45:31;14.10;54.00
69895;DHT22;57172;52.034;5.090;2023-06-04T01:48:01;14.10;54.30
69895;DHT22;57172;52.034;5.090;2023-06-04T01:50:29;14.00;54.10
69895;DHT22;57172;52.034;5.090;2023-06-04T01:52:57;14.00;54.20
69895;DHT22;57172;52.034;5.090;2023-06-04T01:55:24;13.90;54.30
69895;DHT22;57172;52.034;5.090;2023-06-04T01:57:56;13.90;54.50
69895;DHT22;57172;52.034;5.090;2023-06-04T02:00:23;13.90;54.50
69895;DHT22;57172;52.034;5.090;2023-06-04T02:02:50;13.80;54.40
69895;DHT22;57172;52.034;5.090;2023-06-04T02:05:17;13.80;54.40
69895;DHT22;57172;52.034;5.090;2023-06-04T02:07:45;13.70;54.50
69895;DHT22;57172;52.034;5.090;2023-06-04T02:10:16;13.70;54.60
69895;DHT22;57172;52.034;5.090;2023-06-04T02:13:00;13.70;54.70
69895;DHT22;57172;52.034;5.090;2023-06-04T02:15:30;13.70;54.80
69895;DHT22;57172;52.034;5.090;2023-06-04T02:18:10;13.60;54.70
69895;DHT22;57172;52.034;5.090;2023-06-04T02:20:44;13.60;54.80
69895;DHT22;57172;52.034;5.090;2023-06-04T02:23:12;13.60;54.70
69895;DHT22;57172;52.034;5.090;2023-06-04T02:25:39;13.50;54.80
69895;DHT22;57172;52.034;5.090;2023-06-04T02:28:07;13.50;54.80
69895;DHT22;57172;52.034;5.090;2023-06-04T02:30:35;13.50;54.90
69895;DHT22;57172;52.034;5.090;2023-06-04T02:33:02;13.40;54.90
69895;DHT22;57172;52.034;5.090;2023-06-04T02:35:31;13.40;54.90
69895;DHT22;57172;52.034;5.090;2023-06-04T02:37:58;13.40;55.00
69895;DHT22;57172;52.034;5.090;2023-06-04T02:40:26;13.30;54.90
69895;DHT22;57172;52.034;5.090;2023-06-04T02:42:54;13.30;55.00
69895;DHT22;57172;52.034;5.090;2023-06-04T02:45:22;13.30;55.10
69895;DHT22;57172;52.034;5.090;2023-06-04T02:47:49;13.30;55.10
69895;DHT22;57172;52.034;5.090;2023-06-04T02:50:16;13.20;55.10
69895;DHT22;57172;52.034;5.090;2023-06-04T02:52:44;13.20;55.20
69895;DHT22;57172;52.034;5.090;2023-06-04T02:55:10;13.20;55.20
69895;DHT22;57172;52.034;5.090;2023-06-04T02:57:43;13.10;55.10
69895;DHT22;57172;52.034;5.090;2023-06-04T03:00:11;13.10;55.00
69895;DHT22;57172;52.034;5.090;2023-06-04T03:02:44;13.10;55.10
69895;DHT22;57172;52.034;5.090;2023-06-04T03:05:12;13.00;55.10
69895;DHT22;57172;52.034;5.090;2023-06-04T03:07:42;13.00;55.30
69895;DHT22;57172;52.034;5.090;2023-06-04T03:10:11;13.00;55.40
69895;DHT22;57172;52.034;5.090;2023-06-04T03:12:38;12.90;55.40
69895;DHT22;57172;52.034;5.090;2023-06-04T03:15:06;12.90;55.50
69895;DHT22;57172;52.034;5.090;2023-06-04T03:17:33;12.90;55.50
69895;DHT22;57172;52.034;5.090;2023-06-04T03:20:00;12.90;55.50
69895;DHT22;57172;52.034;5.090;2023-06-04T03:22:27;12.90;55.60
69895;DHT22;57172;52.034;5.090;2023-06-04T03:24:55;12.80;55.60
69895;DHT22;57172;52.034;5.090;2023-06-04T03:27:22;12.80;55.60
69895;DHT22;57172;52.034;5.090;2023-06-04T03:29:49;12.80;55.70
69895;DHT22;57172;52.034;5.090;2023-06-04T03:32:17;12.80;55.70
69895;DHT22;57172;52.034;5.090;2023-06-04T03:34:45;12.80;55.80
69895;DHT22;57172;52.034;5.090;2023-06-04T03:37:12;12.80;56.00
69895;DHT22;57172;52.034;5.090;2023-06-04T03:39:39;12.80;55.90
69895;DHT22;57172;52.034;5.090;2023-06-04T03:42:09;12.80;56.10
69895;DHT22;57172;52.034;5.090;2023-06-04T03:44:37;12.80;56.20
69895;DHT22;57172;52.034;5.090;2023-06-04T03:47:04;12.80;56.40
69895;DHT22;57172;52.034;5.090;2023-06-04T03:49:32;12.70;56.50
69895;DHT22;57172;52.034;5.090;2023-06-04T03:51:59;12.70;56.70
69895;DHT22;57172;52.034;5.090;2023-06-04T03:54:27;12.70;56.70
69895;DHT22;57172;52.034;5.090;2023-06-04T03:56:54;12.70;56.80
69895;DHT22;57172;52.034;5.090;2023-06-04T03:59:21;12.70;57.00
69895;DHT22;57172;52.034;5.090;2023-06-04T04:01:48;12.70;57.00
69895;DHT22;57172;52.034;5.090;2023-06-04T04:04:15;12.70;57.10
69895;DHT22;57172;52.034;5.090;2023-06-04T04:06:42;12.70;57.10
69895;DHT22;57172;52.034;5.090;2023-06-04T04:09:10;12.70;57.20
69895;DHT22;57172;52.034;5.090;2023-06-04T04:11:37;12.70;57.20
69895;DHT22;57172;52.034;5.090;2023-06-04T04:14:04;12.70;57.40
69895;DHT22;57172;52.034;5.090;2023-06-04T04:16:32;12.70;57.50
69895;DHT22;57172;52.034;5.090;2023-06-04T04:18:59;12.70;57.50
69895;DHT22;57172;52.034;5.090;2023-06-04T04:21:26;12.70;57.60
69895;DHT22;57172;52.034;5.090;2023-06-04T04:23:53;12.70;57.50
69895;DHT22;57172;52.034;5.090;2023-06-04T04:26:20;12.70;57.60
69895;DHT22;57172;52.034;5.090;2023-06-04T04:28:51;12.70;57.70
69895;DHT22;57172;52.034;5.090;2023-06-04T04:31:19;12.70;57.90
69895;DHT22;57172;52.034;5.090;2023-06-04T04:33:47;12.70;57.90
69895;DHT22;57172;52.034;5.090;2023-06-04T04:36:14;12.80;57.90
69895;DHT22;57172;52.034;5.090;2023-06-04T04:38:46;12.80;58.10
69895;DHT22;57172;52.034;5.090;2023-06-04T04:41:23;12.80;58.20
69895;DHT22;57172;52.034;5.090;2023-06-04T04:43:53;12.90;58.30
69895;DHT22;57172;52.034;5.090;2023-06-04T04:46:27;12.90;58.40
69895;DHT22;57172;52.034;5.090;2023-06-04T04:48:54;12.90;58.30
69895;DHT22;57172;52.034;5.090;2023-06-04T04:51:21;12.90;58.40
69895;DHT22;57172;52.034;5.090;2023-06-04T04:53:49;12.90;58.60
69895;DHT22;57172;52.034;5.090;2023-06-04T04:56:17;12.90;58.60
69895;DHT22;57172;52.034;5.090;2023-06-04T04:58:48;13.00;58.60
69895;DHT22;57172;52.034;5.090;2023-06-04T05:01:16;13.00;58.60
69895;DHT22;57172;52.034;5.090;2023-06-04T05:03:43;13.00;58.80
69895;DHT22;57172;52.034;5.090;2023-06-04T05:06:13;13.00;58.90
69895;DHT22;57172;52.034;5.090;2023-06-04T05:08:40;13.10;58.90
69895;DHT22;57172;52.034;5.090;2023-06-04T05:11:09;13.10;58.90
69895;DHT22;57172;52.034;5.090;2023-06-04T05:13:37;13.10;59.00
69895;DHT22;57172;52.034;5.090;2023-06-04T05:16:05;13.20;59.00
69895;DHT22;57172;52.034;5.090;2023-06-04T05:18:39;13.20;59.00
69895;DHT22;57172;52.034;5.090;2023-06-04T05:21:15;13.30;59.00
69895;DHT22;57172;52.034;5.090;2023-06-04T05:23:48;13.30;58.90
69895;DHT22;57172;52.034;5.090;2023-06-04T05:26:18;13.40;59.00
69895;DHT22;57172;52.034;5.090;2023-06-04T05:28:50;13.40;59.00
69895;DHT22;57172;52.034;5.090;2023-06-04T05:31:17;13.50;59.00
69895;DHT22;57172;52.034;5.090;2023-06-04T05:33:45;13.50;59.00
69895;DHT22;57172;52.034;5.090;2023-06-04T05:36:15;13.60;59.10
69895;DHT22;57172;52.034;5.090;2023-06-04T05:38:49;13.70;58.90
69895;DHT22;57172;52.034;5.090;2023-06-04T05:41:28;13.70;59.00
69895;DHT22;57172;52.034;5.090;2023-06-04T05:43:55;13.70;58.80
69895;DHT22;57172;52.034;5.090;2023-06-04T05:46:23;13.80;58.80
69895;DHT22;57172;52.034;5.090;2023-06-04T05:48:50;13.80;58.70
69895;DHT22;57172;52.034;5.090;2023-06-04T05:51:19;13.90;58.70
69895;DHT22;57172;52.034;5.090;2023-06-04T05:53:46;13.90;58.80
69895;DHT22;57172;52.034;5.090;2023-06-04T05:56:14;14.00;58.70
69895;DHT22;57172;52.034;5.090;2023-06-04T05:58:41;14.10;58.40
69895;DHT22;57172;52.034;5.090;2023-06-04T06:01:09;14.10;58.40
69895;DHT22;57172;52.034;5.090;2023-06-04T06:03:37;14.20;58.30
69895;DHT22;57172;52.034;5.090;2023-06-04T06:06:04;14.30;58.30
69895;DHT22;57172;52.034;5.090;2023-06-04T06:08:32;14.30;58.20
69895;DHT22;57172;52.034;5.090;2023-06-04T06:10:59;14.40;58.10
69895;DHT22;57172;52.034;5.090;2023-06-04T06:13:26;14.50;57.90
69895;DHT22;57172;52.034;5.090;2023-06-04T06:15:55;14.60;58.00
69895;DHT22;57172;52.034;5.090;2023-06-04T06:18:22;14.60;58.20
69895;DHT22;57172;52.034;5.090;2023-06-04T06:20:49;14.70;58.10
69895;DHT22;57172;52.034;5.090;2023-06-04T06:23:16;14.80;57.90
69895;DHT22;57172;52.034;5.090;2023-06-04T06:25:45;14.80;57.80
69895;DHT22;57172;52.034;5.090;2023-06-04T06:28:18;14.90;57.70
69895;DHT22;57172;52.034;5.090;2023-06-04T06:30:46;15.00;57.60
69895;DHT22;57172;52.034;5.090;2023-06-04T06:33:14;15.10;57.40
69895;DHT22;57172;52.034;5.090;2023-06-04T06:35:41;15.20;57.30
69895;DHT22;57172;52.034;5.090;2023-06-04T06:38:08;15.20;57.10
69895;DHT22;57172;52.034;5.090;2023-06-04T06:40:35;15.30;56.60
69895;DHT22;57172;52.034;5.090;2023-06-04T06:43:02;15.30;56.60
69895;DHT22;57172;52.034;5.090;2023-06-04T06:45:29;15.40;56.90
69895;DHT22;57172;52.034;5.090;2023-06-04T06:47:55;15.50;56.70
69895;DHT22;57172;52.034;5.090;2023-06-04T06:50:23;15.60;56.60
69895;DHT22;57172;52.034;5.090;2023-06-04T06:52:50;15.60;56.50
69895;DHT22;57172;52.034;5.090;2023-06-04T06:55:17;15.70;56.50
69895;DHT22;57172;52.034;5.090;2023-06-04T06:57:44;15.80;56.30
69895;DHT22;57172;52.034;5.090;2023-06-04T07:00:12;15.90;56.30
69895;DHT22;57172;52.034;5.090;2023-06-04T07:02:39;16.10;55.90
69895;DHT22;57172;52.034;5.090;2023-06-04T07:05:06;16.10;55.70
69895;DHT22;57172;52.034;5.090;2023-06-04T07:07:33;16.20;55.70
69895;DHT22;57172;52.034;5.090;2023-06-04T07:10:00;16.30;55.60
69895;DHT22;57172;52.034;5.090;2023-06-04T07:12:27;16.50;55.20
69895;DHT22;57172;52.034;5.090;2023-06-04T07:14:54;16.50;54.80
69895;DHT22;57172;52.034;5.090;2023-06-04T07:17:21;16.60;54.90
69895;DHT22;57172;52.034;5.090;2023-06-04T07:19:48;16.70;54.90
69895;DHT22;57172;52.034;5.090;2023-06-04T07:22:15;16.80;54.70
69895;DHT22;57172;52.034;5.090;2023-06-04T07:24:42;16.90;54.60
69895;DHT22;57172;52.034;5.090;2023-06-04T07:27:13;17.00;54.60
69895;DHT22;57172;52.034;5.090;2023-06-04T07:29:43;17.10;54.10
69895;DHT22;57172;52.034;5.090;2023-06-04T07:32:10;17.20;54.10
69895;DHT22;57172;52.034;5.090;2023-06-04T07:34:40;17.30;53.80
69895;DHT22;57172;52.034;5.090;2023-06-04T07:37:07;17.40;53.70
69895;DHT22;57172;52.034;5.090;2023-06-04T07:39:36;17.50;53.40
69895;DHT22;57172;52.034;5.090;2023-06-04T07:42:04;17.60;53.50
69895;DHT22;57172;52.034;5.090;2023-06-04T07:44:32;17.80;53.10
69895;DHT22;57172;52.034;5.090;2023-06-04T07:46:59;17.90;52.40
69895;DHT22;57172;52.034;5.090;2023-06-04T07:49:26;18.00;52.00
69895;DHT22;57172;52.034;5.090;2023-06-04T07:51:53;18.10;51.90
69895;DHT22;57172;52.034;5.090;2023-06-04T07:54:20;18.20;51.60
69895;DHT22;57172;52.034;5.090;2023-06-04T07:56:47;18.30;51.20
69895;DHT22;57172;52.034;5.090;2023-06-04T07:59:14;18.40;50.70
69895;DHT22;57172;52.034;5.090;2023-06-04T08:01:41;18.50;50.50
69895;DHT22;57172;52.034;5.090;2023-06-04T08:04:07;18.60;50.30
69895;DHT22;57172;52.034;5.090;2023-06-04T08:06:35;18.70;50.00
69895;DHT22;57172;52.034;5.090;2023-06-04T08:09:02;18.80;48.90
69895;DHT22;57172;52.034;5.090;2023-06-04T08:11:29;18.90;48.30
69895;DHT22;57172;52.034;5.090;2023-06-04T08:13:56;19.00;48.30
69895;DHT22;57172;52.034;5.090;2023-06-04T08:16:23;19.00;47.50
69895;DHT22;57172;52.034;5.090;2023-06-04T08:18:49;19.10;47.60
69895;DHT22;57172;52.034;5.090;2023-06-04T08:21:25;19.10;47.60
69895;DHT22;57172;52.034;5.090;2023-06-04T08:23:53;19.20;47.60
69895;DHT22;57172;52.034;5.090;2023-06-04T08:26:20;19.30;47.20
69895;DHT22;57172;52.034;5.090;2023-06-04T08:28:50;19.50;46.80
69895;DHT22;57172;52.034;5.090;2023-06-04T08:31:17;19.60;46.40
69895;DHT22;57172;52.034;5.090;2023-06-04T08:33:48;19.70;46.50
69895;DHT22;57172;52.034;5.090;2023-06-04T08:36:14;19.80;45.50
69895;DHT22;57172;52.034;5.090;2023-06-04T08:38:42;19.90;45.50
69895;DHT22;57172;52.034;5.090;2023-06-04T08:41:20;20.10;45.80
69895;DHT22;57172;52.034;5.090;2023-06-04T08:43:49;20.40;45.70
69895;DHT22;57172;52.034;5.090;2023-06-04T08:46:17;20.80;45.90
69895;DHT22;57172;52.034;5.090;2023-06-04T08:48:46;21.30;44.70
69895;DHT22;57172;52.034;5.090;2023-06-04T08:51:13;21.80;44.90
69895;DHT22;57172;52.034;5.090;2023-06-04T08:53:42;22.50;44.00
69895;DHT22;57172;52.034;5.090;2023-06-04T08:56:09;23.30;43.30
69895;DHT22;57172;52.034;5.090;2023-06-04T08:58:36;24.10;42.50
69895;DHT22;57172;52.034;5.090;2023-06-04T09:01:06;24.80;40.60
69895;DHT22;57172;52.034;5.090;2023-06-04T09:03:36;25.50;38.70
69895;DHT22;57172;52.034;5.090;2023-06-04T09:06:04;26.10;38.00
69895;DHT22;57172;52.034;5.090;2023-06-04T09:08:34;26.60;37.30
69895;DHT22;57172;52.034;5.090;2023-06-04T09:11:05;27.10;36.10
69895;DHT22;57172;52.034;5.090;2023-06-04T09:13:33;27.70;36.60
69895;DHT22;57172;52.034;5.090;2023-06-04T09:16:02;28.30;35.40
69895;DHT22;57172;52.034;5.090;2023-06-04T09:18:30;28.90;34.30
69895;DHT22;57172;52.034;5.090;2023-06-04T09:21:04;29.40;33.00
69895;DHT22;57172;52.034;5.090;2023-06-04T09:23:44;29.80;32.00
69895;DHT22;57172;52.034;5.090;2023-06-04T09:26:12;30.10;31.00
69895;DHT22;57172;52.034;5.090;2023-06-04T09:28:44;30.20;31.50
69895;DHT22;57172;52.034;5.090;2023-06-04T09:31:15;30.40;30.60
69895;DHT22;57172;52.034;5.090;2023-06-04T09:33:48;30.70;30.60
69895;DHT22;57172;52.034;5.090;2023-06-04T09:36:16;30.90;30.00
69895;DHT22;57172;52.034;5.090;2023-06-04T09:38:43;31.10;30.20
69895;DHT22;57172;52.034;5.090;2023-06-04T09:41:16;31.20;30.10
69895;DHT22;57172;52.034;5.090;2023-06-04T09:43:43;31.40;29.70
69895;DHT22;57172;52.034;5.090;2023-06-04T09:46:15;31.60;29.90
69895;DHT22;57172;52.034;5.090;2023-06-04T09:48:43;32.00;28.90
69895;DHT22;57172;52.034;5.090;2023-06-04T09:51:12;32.30;28.80
69895;DHT22;57172;52.034;5.090;2023-06-04T09:53:39;32.50;28.50
69895;DHT22;57172;52.034;5.090;2023-06-04T09:56:07;32.90;28.30
69895;DHT22;57172;52.034;5.090;2023-06-04T09:58:35;33.30;27.60
69895;DHT22;57172;52.034;5.090;2023-06-04T10:01:04;33.60;27.20
69895;DHT22;57172;52.034;5.090;2023-06-04T10:03:34;33.90;27.00
69895;DHT22;57172;52.034;5.090;2023-06-04T10:06:06;34.10;27.10
69895;DHT22;57172;52.034;5.090;2023-06-04T10:08:33;34.20;25.70
69895;DHT22;57172;52.034;5.090;2023-06-04T10:11:02;34.00;25.90
69895;DHT22;57172;52.034;5.090;2023-06-04T10:13:31;33.90;25.80
69895;DHT22;57172;52.034;5.090;2023-06-04T10:16:02;34.00;25.80
69895;DHT22;57172;52.034;5.090;2023-06-04T10:18:30;33.90;24.90
69895;DHT22;57172;52.034;5.090;2023-06-04T10:20:58;33.80;24.60
69895;DHT22;57172;52.034;5.090;2023-06-04T10:23:25;33.50;25.10
69895;DHT22;57172;52.034;5.090;2023-06-04T10:25:52;33.60;25.60
69895;DHT22;57172;52.034;5.090;2023-06-04T10:28:21;33.80;25.80
69895;DHT22;57172;52.034;5.090;2023-06-04T10:30:50;34.10;25.80
69895;DHT22;57172;52.034;5.090;2023-06-04T10:33:21;34.40;25.10
69895;DHT22;57172;52.034;5.090;2023-06-04T10:35:53;34.80;25.20
69895;DHT22;57172;52.034;5.090;2023-06-04T10:38:21;35.30;24.70
69895;DHT22;57172;52.034;5.090;2023-06-04T10:40:49;35.60;23.80
69895;DHT22;57172;52.034;5.090;2023-06-04T10:43:16;35.50;23.50
69895;DHT22;57172;52.034;5.090;2023-06-04T10:45:42;35.40;24.00
69895;DHT22;57172;52.034;5.090;2023-06-04T10:48:11;35.50;24.50
69895;DHT22;57172;52.034;5.090;2023-06-04T10:50:52;35.70;23.70
69895;DHT22;57172;52.034;5.090;2023-06-04T10:53:19;35.70;23.50
69895;DHT22;57172;52.034;5.090;2023-06-04T10:55:48;35.80;23.40
69895;DHT22;57172;52.034;5.090;2023-06-04T10:58:15;35.80;23.20
69895;DHT22;57172;52.034;5.090;2023-06-04T11:00:44;35.90;23.30
69895;DHT22;57172;52.034;5.090;2023-06-04T11:03:13;36.30;23.40
69895;DHT22;57172;52.034;5.090;2023-06-04T11:05:42;36.70;23.70
69895;DHT22;57172;52.034;5.090;2023-06-04T11:08:11;37.00;23.30
69895;DHT22;57172;52.034;5.090;2023-06-04T11:10:43;37.10;22.80
69895;DHT22;57172;52.034;5.090;2023-06-04T11:13:10;37.10;22.80
69895;DHT22;57172;52.034;5.090;2023-06-04T11:15:44;37.40;22.80
69895;DHT22;57172;52.034;5.090;2023-06-04T11:18:19;37.60;22.40
69895;DHT22;57172;52.034;5.090;2023-06-04T11:20:47;37.80;22.40
69895;DHT22;57172;52.034;5.090;2023-06-04T11:23:15;37.90;22.00
69895;DHT22;57172;52.034;5.090;2023-06-04T11:25:43;37.70;22.10
69895;DHT22;57172;52.034;5.090;2023-06-04T11:28:15;37.50;22.30
69895;DHT22;57172;52.034;5.090;2023-06-04T11:30:44;37.40;22.00
69895;DHT22;57172;52.034;5.090;2023-06-04T11:33:10;37.30;22.60
69895;DHT22;57172;52.034;5.090;2023-06-04T11:35:41;37.40;22.80
69895;DHT22;57172;52.034;5.090;2023-06-04T11:38:09;37.30;22.50
69895;DHT22;57172;52.034;5.090;2023-06-04T11:40:36;37.40;22.80
69895;DHT22;57172;52.034;5.090;2023-06-04T11:43:03;37.50;23.10
69895;DHT22;57172;52.034;5.090;2023-06-04T11:45:30;37.70;23.10
69895;DHT22;57172;52.034;5.090;2023-06-04T11:47:57;38.00;22.90
69895;DHT22;57172;52.034;5.090;2023-06-04T11:50:28;38.10;22.20
69895;DHT22;57172;52.034;5.090;2023-06-04T11:52:56;38.00;22.10
69895;DHT22;57172;52.034;5.090;2023-06-04T11:55:23;37.80;22.50
69895;DHT22;57172;52.034;5.090;2023-06-04T11:57:51;37.80;22.60
69895;DHT22;57172;52.034;5.090;2023-06-04T12:00:18;37.90;22.60
69895;DHT22;57172;52.034;5.090;2023-06-04T12:02:51;37.90;22.10
69895;DHT22;57172;52.034;5.090;2023-06-04T12:05:21;37.70;22.80
69895;DHT22;57172;52.034;5.090;2023-06-04T12:07:52;37.50;22.40
69895;DHT22;57172;52.034;5.090;2023-06-04T12:10:19;37.30;22.70
69895;DHT22;57172;52.034;5.090;2023-06-04T12:12:53;37.40;23.10
69895;DHT22;57172;52.034;5.090;2023-06-04T12:15:22;37.60;22.70
69895;DHT22;57172;52.034;5.090;2023-06-04T12:17:53;37.90;22.30
69895;DHT22;57172;52.034;5.090;2023-06-04T12:22:59;37.70;21.80
69895;DHT22;57172;52.034;5.090;2023-06-04T12:25:27;37.50;22.30
69895;DHT22;57172;52.034;5.090;2023-06-04T12:27:54;37.40;22.40
69895;DHT22;57172;52.034;5.090;2023-06-04T12:30:21;37.40;22.30
69895;DHT22;57172;52.034;5.090;2023-06-04T12:32:48;37.40;22.60
69895;DHT22;57172;52.034;5.090;2023-06-04T12:35:16;37.70;22.40
69895;DHT22;57172;52.034;5.090;2023-06-04T12:37:42;38.10;22.30
69895;DHT22;57172;52.034;5.090;2023-06-04T12:40:09;38.20;22.20
69895;DHT22;57172;52.034;5.090;2023-06-04T12:42:37;38.20;22.70
69895;DHT22;57172;52.034;5.090;2023-06-04T12:45:04;37.90;23.80
69895;DHT22;57172;52.034;5.090;2023-06-04T12:47:31;37.60;24.60
69895;DHT22;57172;52.034;5.090;2023-06-04T12:49:58;37.20;25.10
69895;DHT22;57172;52.034;5.090;2023-06-04T12:52:25;36.90;25.60
69895;DHT22;57172;52.034;5.090;2023-06-04T12:54:52;36.80;25.60
69895;DHT22;57172;52.034;5.090;2023-06-04T12:57:19;36.50;25.80
69895;DHT22;57172;52.034;5.090;2023-06-04T12:59:46;36.30;26.30
69895;DHT22;57172;52.034;5.090;2023-06-04T13:02:13;36.00;26.60
69895;DHT22;57172;52.034;5.090;2023-06-04T13:04:40;35.80;27.00
69895;DHT22;57172;52.034;5.090;2023-06-04T13:07:11;35.60;27.10
69895;DHT22;57172;52.034;5.090;2023-06-04T13:09:38;35.40;27.20
69895;DHT22;57172;52.034;5.090;2023-06-04T13:12:05;35.30;27.20
69895;DHT22;57172;52.034;5.090;2023-06-04T13:14:32;35.00;27.40
69895;DHT22;57172;52.034;5.090;2023-06-04T13:17:00;34.70;27.70
69895;DHT22;57172;52.034;5.090;2023-06-04T13:19:39;34.40;27.90
69895;DHT22;57172;52.034;5.090;2023-06-04T13:22:06;34.10;28.20
69895;DHT22;57172;52.034;5.090;2023-06-04T13:24:35;33.80;28.60
69895;DHT22;57172;52.034;5.090;2023-06-04T13:27:03;33.80;28.60
69895;DHT22;57172;52.034;5.090;2023-06-04T13:29:30;33.90;28.50
69895;DHT22;57172;52.034;5.090;2023-06-04T13:32:00;34.00;28.50
69895;DHT22;57172;52.034;5.090;2023-06-04T13:34:27;34.20;28.30
69895;DHT22;57172;52.034;5.090;2023-06-04T13:36:54;34.20;28.00
69895;DHT22;57172;52.034;5.090;2023-06-04T13:39:22;34.30;28.10
69895;DHT22;57172;52.034;5.090;2023-06-04T13:41:49;34.30;27.90
69895;DHT22;57172;52.034;5.090;2023-06-04T13:44:16;34.10;27.60
69895;DHT22;57172;52.034;5.090;2023-06-04T13:46:43;33.80;27.90
69895;DHT22;57172;52.034;5.090;2023-06-04T13:49:10;33.60;28.10
69895;DHT22;57172;52.034;5.090;2023-06-04T13:51:37;33.30;28.20
69895;DHT22;57172;52.034;5.090;2023-06-04T13:54:04;33.00;28.00
69895;DHT22;57172;52.034;5.090;2023-06-04T13:56:31;32.80;28.20
69895;DHT22;57172;52.034;5.090;2023-06-04T13:58:57;32.60;28.30
69895;DHT22;57172;52.034;5.090;2023-06-04T14:01:24;32.50;28.50
69895;DHT22;57172;52.034;5.090;2023-06-04T14:03:51;32.60;28.80
69895;DHT22;57172;52.034;5.090;2023-06-04T14:06:19;32.70;28.30
69895;DHT22;57172;52.034;5.090;2023-06-04T14:08:46;32.60;28.30
69895;DHT22;57172;52.034;5.090;2023-06-04T14:11:13;32.50;28.40
69895;DHT22;57172;52.034;5.090;2023-06-04T14:13:40;32.50;28.30
69895;DHT22;57172;52.034;5.090;2023-06-04T14:16:08;32.50;28.60
69895;DHT22;57172;52.034;5.090;2023-06-04T14:18:35;32.50;28.40
69895;DHT22;57172;52.034;5.090;2023-06-04T14:21:02;32.50;28.40
69895;DHT22;57172;52.034;5.090;2023-06-04T14:23:29;32.40;28.40
69895;DHT22;57172;52.034;5.090;2023-06-04T14:25:56;32.40;28.60
69895;DHT22;57172;52.034;5.090;2023-06-04T14:28:22;32.30;28.60
69895;DHT22;57172;52.034;5.090;2023-06-04T14:30:49;32.30;28.90
69895;DHT22;57172;52.034;5.090;2023-06-04T14:33:17;32.40;28.40
69895;DHT22;57172;52.034;5.090;2023-06-04T14:35:44;32.30;28.70
69895;DHT22;57172;52.034;5.090;2023-06-04T14:38:14;32.20;28.60
69895;DHT22;57172;52.034;5.090;2023-06-04T14:40:42;32.20;28.80
69895;DHT22;57172;52.034;5.090;2023-06-04T14:43:11;32.30;28.70
69895;DHT22;57172;52.034;5.090;2023-06-04T14:45:38;32.20;28.40
69895;DHT22;57172;52.034;5.090;2023-06-04T14:48:06;32.00;28.70
69895;DHT22;57172;52.034;5.090;2023-06-04T14:50:42;31.80;28.90
69895;DHT22;57172;52.034;5.090;2023-06-04T14:53:11;31.70;29.00
69895;DHT22;57172;52.034;5.090;2023-06-04T14:55:39;31.60;28.90
69895;DHT22;57172;52.034;5.090;2023-06-04T14:58:06;31.50;29.10
69895;DHT22;57172;52.034;5.090;2023-06-04T15:00:32;31.50;29.10
69895;DHT22;57172;52.034;5.090;2023-06-04T15:02:59;31.30;29.30
69895;DHT22;57172;52.034;5.090;2023-06-04T15:05:30;31.30;29.30
69895;DHT22;57172;52.034;5.090;2023-06-04T15:07:58;31.10;29.50
69895;DHT22;57172;52.034;5.090;2023-06-04T15:10:25;31.00;29.50
69895;DHT22;57172;52.034;5.090;2023-06-04T15:12:53;30.80;29.80
69895;DHT22;57172;52.034;5.090;2023-06-04T15:15:20;30.60;30.00
69895;DHT22;57172;52.034;5.090;2023-06-04T15:17:48;30.50;30.30
69895;DHT22;57172;52.034;5.090;2023-06-04T15:20:15;30.50;30.70
69895;DHT22;57172;52.034;5.090;2023-06-04T15:22:42;30.60;30.50
69895;DHT22;57172;52.034;5.090;2023-06-04T15:25:09;30.60;30.60
69895;DHT22;57172;52.034;5.090;2023-06-04T15:27:37;30.80;30.70
69895;DHT22;57172;52.034;5.090;2023-06-04T15:30:05;30.90;30.40
69895;DHT22;57172;52.034;5.090;2023-06-04T15:32:32;30.80;30.30
69895;DHT22;57172;52.034;5.090;2023-06-04T15:35:01;30.50;30.50
69895;DHT22;57172;52.034;5.090;2023-06-04T15:37:28;30.30;30.90
69895;DHT22;57172;52.034;5.090;2023-06-04T15:39:55;30.10;30.90
69895;DHT22;57172;52.034;5.090;2023-06-04T15:42:24;29.90;31.10
69895;DHT22;57172;52.034;5.090;2023-06-04T15:44:51;29.80;31.40